Terminal Aerodrome Forecast
Issued by NWS Goodland, KS

Home | Current Version | Previous Version | Text Only | Print | Product List | Glossary On
Versions: 1 2 3 4 5 6 7 8 9 10 11 12 13 14 15 16
000
FTUS43 KGLD 291720
TAFGLD
TAF
KGLD 291720Z 2918/3018 13010KT P6SM VCSH SCT100 BKN150
     FM300000 14007KT P6SM SCT250
     FM301100 VRB04KT P6SM SCT015 BKN035
     FM301600 18010KT P6SM SCT100 BKN250=

USA.gov is the U.S. government's official web portal to all federal, state and local government web resources and services.